createdAt,value
2018-06-08T00:00:05.428Z,16.80
2018-06-08T00:02:33.761Z,16.80
2018-06-08T00:05:02.073Z,16.80
2018-06-08T00:07:30.399Z,16.80
2018-06-08T00:09:58.728Z,16.80
2018-06-08T00:12:27.058Z,16.70
2018-06-08T00:14:55.365Z,16.50
2018-06-08T00:17:23.697Z,16.30
2018-06-08T00:19:52.009Z,16.30
2018-06-08T00:22:20.339Z,16.40
2018-06-08T00:24:48.657Z,16.40
2018-06-08T00:27:16.984Z,16.50
2018-06-08T00:29:45.292Z,16.60
2018-06-08T00:32:13.625Z,16.60
2018-06-08T00:34:41.938Z,16.60
2018-06-08T00:37:10.273Z,16.50
2018-06-08T00:39:38.584Z,16.50
2018-06-08T00:42:06.933Z,16.50
2018-06-08T00:44:35.240Z,16.50
2018-06-08T00:47:03.588Z,16.60
2018-06-08T00:49:31.908Z,16.60
2018-06-08T00:52:00.234Z,16.60
2018-06-08T00:54:28.554Z,16.70
2018-06-08T00:57:07.166Z,16.70
2018-06-08T00:59:35.525Z,16.60
2018-06-08T01:02:03.857Z,16.60
2018-06-08T01:04:32.189Z,16.50
2018-06-08T01:07:00.505Z,16.50
2018-06-08T01:09:29.014Z,16.60
2018-06-08T01:11:57.369Z,16.60
2018-06-08T01:14:33.145Z,16.60
2018-06-08T01:17:01.769Z,16.70
2018-06-08T01:19:34.077Z,16.60
2018-06-08T01:22:02.597Z,16.60
2018-06-08T01:24:30.952Z,16.60
2018-06-08T01:26:59.297Z,16.60
2018-06-08T01:29:27.645Z,16.50
2018-06-08T01:31:55.955Z,16.40
2018-06-08T01:34:24.288Z,16.40
2018-06-08T01:36:52.614Z,16.50
2018-06-08T01:39:20.937Z,16.50
2018-06-08T01:41:49.244Z,16.40
2018-06-08T01:44:17.578Z,16.20
2018-06-08T01:46:45.897Z,15.90
2018-06-08T01:49:14.224Z,15.90
2018-06-08T01:51:42.534Z,16.00
2018-06-08T01:54:10.864Z,16.20
2018-06-08T01:56:39.172Z,16.30
2018-06-08T01:59:07.500Z,16.20
2018-06-08T02:01:35.813Z,16.10
2018-06-08T02:04:04.164Z,16.00
2018-06-08T02:06:32.498Z,15.90
2018-06-08T02:09:00.852Z,16.00
2018-06-08T02:11:29.170Z,16.20
2018-06-08T02:13:57.513Z,16.30
2018-06-08T02:16:25.829Z,16.40
2018-06-08T02:18:54.137Z,16.40
2018-06-08T02:21:22.507Z,16.40
2018-06-08T02:23:50.813Z,16.40
2018-06-08T02:26:19.141Z,16.50
2018-06-08T02:28:47.459Z,16.50
2018-06-08T02:31:15.789Z,16.50
2018-06-08T02:33:44.120Z,16.50
2018-06-08T02:36:12.457Z,16.40
2018-06-08T02:38:41.084Z,16.40
2018-06-08T02:41:09.417Z,16.40
2018-06-08T02:43:37.734Z,16.20
2018-06-08T02:46:06.070Z,15.90
2018-06-08T02:48:34.395Z,15.90
2018-06-08T02:51:02.728Z,16.00
2018-06-08T02:53:31.041Z,16.10
2018-06-08T02:55:59.374Z,16.20
2018-06-08T02:58:27.685Z,16.10
2018-06-08T03:00:56.018Z,15.70
2018-06-08T03:03:24.338Z,15.50
2018-06-08T03:05:52.678Z,15.40
2018-06-08T03:08:21.009Z,15.50
2018-06-08T03:10:49.341Z,15.70
2018-06-08T03:13:17.649Z,15.70
2018-06-08T03:15:45.985Z,15.60
2018-06-08T03:18:14.293Z,15.30
2018-06-08T03:20:42.625Z,15.10
2018-06-08T03:23:10.940Z,15.10
2018-06-08T03:25:39.278Z,15.40
2018-06-08T03:28:07.581Z,15.60
2018-06-08T03:30:35.914Z,15.80
2018-06-08T03:33:04.228Z,16.00
2018-06-08T03:35:32.573Z,16.20
2018-06-08T03:38:00.898Z,16.20
2018-06-08T03:40:29.216Z,16.30
2018-06-08T03:42:57.551Z,16.40
2018-06-08T03:45:25.872Z,16.40
2018-06-08T03:47:54.214Z,16.30
2018-06-08T03:50:22.537Z,16.30
2018-06-08T03:52:50.869Z,16.30
2018-06-08T03:55:19.179Z,16.30
2018-06-08T03:57:47.517Z,16.30
2018-06-08T04:00:15.833Z,16.40
2018-06-08T04:02:44.169Z,16.50
2018-06-08T04:05:12.490Z,16.60
2018-06-08T04:07:40.842Z,16.50
2018-06-08T04:10:09.161Z,16.60
2018-06-08T04:12:37.501Z,16.60
2018-06-08T04:15:05.884Z,16.20
2018-06-08T04:17:34.227Z,15.80
2018-06-08T04:20:02.543Z,15.50
2018-06-08T04:22:30.876Z,15.50
2018-06-08T04:24:59.189Z,15.60
2018-06-08T04:27:27.525Z,15.70
2018-06-08T04:29:55.842Z,16.00
2018-06-08T04:32:24.190Z,16.20
2018-06-08T04:34:52.530Z,16.40
2018-06-08T04:37:20.870Z,16.60
2018-06-08T04:39:49.185Z,16.80
2018-06-08T04:42:17.523Z,16.80
2018-06-08T04:44:45.848Z,16.80
2018-06-08T04:47:14.173Z,17.10
2018-06-08T04:49:42.489Z,17.10
2018-06-08T04:52:10.836Z,17.10
2018-06-08T04:54:39.153Z,17.00
2018-06-08T04:57:07.476Z,17.00
2018-06-08T04:59:35.813Z,17.00
2018-06-08T05:02:04.152Z,17.10
2018-06-08T05:04:32.483Z,17.10
2018-06-08T05:07:00.792Z,17.20
2018-06-08T05:09:29.141Z,17.30
2018-06-08T05:11:57.451Z,17.30
2018-06-08T05:14:25.796Z,17.30
2018-06-08T05:16:54.109Z,17.50
2018-06-08T05:19:22.437Z,17.70
2018-06-08T05:21:50.741Z,17.80
2018-06-08T05:24:19.073Z,17.90
2018-06-08T05:26:47.386Z,18.10
2018-06-08T05:29:15.728Z,18.20
2018-06-08T05:31:44.079Z,18.50
2018-06-08T05:34:12.421Z,18.70
2018-06-08T05:36:40.730Z,18.70
2018-06-08T05:41:37.569Z,18.70
2018-06-08T05:44:06.003Z,18.60
2018-06-08T05:46:34.322Z,18.90
2018-06-08T05:49:02.648Z,19.10
2018-06-08T05:51:30.962Z,19.20
2018-06-08T05:53:59.293Z,19.30
2018-06-08T05:56:27.721Z,19.60
2018-06-08T05:58:56.052Z,19.60
2018-06-08T06:01:24.369Z,19.60
2018-06-08T06:03:52.693Z,19.70
2018-06-08T06:06:21.005Z,19.80
2018-06-08T06:08:49.350Z,19.90
2018-06-08T06:11:17.697Z,19.80
2018-06-08T06:16:14.120Z,20.10
2018-06-08T06:18:42.442Z,20.20
2018-06-08T06:21:10.769Z,20.40
2018-06-08T06:23:39.091Z,20.30
2018-06-08T06:26:07.430Z,20.30
2018-06-08T06:28:35.738Z,20.30
2018-06-08T06:31:04.069Z,20.40
2018-06-08T06:33:32.389Z,20.60
2018-06-08T06:36:00.714Z,20.60
2018-06-08T06:38:29.025Z,20.60
2018-06-08T06:40:57.908Z,20.70
2018-06-08T06:43:26.272Z,20.70
2018-06-08T06:45:54.606Z,20.70
2018-06-08T06:48:24.284Z,20.90
2018-06-08T06:50:52.649Z,20.90
2018-06-08T06:53:20.968Z,21.00
2018-06-08T07:00:45.440Z,21.20
2018-06-08T07:03:13.762Z,21.30
2018-06-08T07:05:42.100Z,21.40
2018-06-08T07:08:10.429Z,21.40
2018-06-08T07:10:38.757Z,21.50
2018-06-08T07:13:07.148Z,21.60
2018-06-08T07:15:35.486Z,21.60
2018-06-08T07:18:03.802Z,21.80
2018-06-08T07:20:32.138Z,21.90
2018-06-08T07:23:00.441Z,21.90
2018-06-08T07:25:28.765Z,22.00
2018-06-08T07:27:57.073Z,22.10
2018-06-08T07:30:25.404Z,22.10
2018-06-08T07:32:53.726Z,22.10
2018-06-08T07:35:22.069Z,22.20
2018-06-08T07:37:50.401Z,22.30
2018-06-08T07:40:18.737Z,22.20
2018-06-08T07:42:47.066Z,22.40
2018-06-08T07:45:15.381Z,22.40
2018-06-08T07:47:43.709Z,22.40
2018-06-08T07:50:12.022Z,22.50
2018-06-08T07:52:40.353Z,22.60
2018-06-08T07:55:08.653Z,22.60
2018-06-08T07:57:36.985Z,22.70
2018-06-08T08:02:40.393Z,22.90
2018-06-08T08:05:08.693Z,23.00
2018-06-08T08:07:37.018Z,23.00
2018-06-08T08:10:05.341Z,23.00
2018-06-08T08:12:33.764Z,23.20
2018-06-08T08:15:02.081Z,23.30
2018-06-08T08:17:30.410Z,23.30
2018-06-08T08:19:58.802Z,23.20
2018-06-08T08:22:27.585Z,23.20
2018-06-08T08:24:55.973Z,23.30
2018-06-08T08:27:24.313Z,23.30
2018-06-08T08:29:52.650Z,23.30
2018-06-08T08:32:21.105Z,23.30
2018-06-08T08:34:49.440Z,23.30
2018-06-08T08:37:17.769Z,23.20
2018-06-08T08:39:46.113Z,23.40
2018-06-08T08:42:14.456Z,23.50
2018-06-08T08:44:42.853Z,23.60
2018-06-08T08:47:11.194Z,23.80
2018-06-08T08:49:39.652Z,24.00
2018-06-08T08:52:08.125Z,24.20
2018-06-08T08:54:36.805Z,24.30
2018-06-08T08:57:05.278Z,24.20
2018-06-08T09:02:01.637Z,24.00
2018-06-08T09:04:29.972Z,24.20
2018-06-08T09:06:58.291Z,24.50
2018-06-08T09:09:26.641Z,24.60
2018-06-08T09:11:54.957Z,24.40
2018-06-08T09:14:23.285Z,24.50
2018-06-08T09:16:51.593Z,24.70
2018-06-08T09:19:19.935Z,24.80
2018-06-08T09:21:48.245Z,24.90
2018-06-08T09:24:16.572Z,25.10
2018-06-08T09:26:44.882Z,25.00
2018-06-08T09:29:13.208Z,24.60
2018-06-08T09:31:41.521Z,24.50
2018-06-08T09:34:09.853Z,24.30
2018-06-08T09:36:38.176Z,24.00
2018-06-08T09:39:07.373Z,23.30
2018-06-08T09:41:35.857Z,23.10
2018-06-08T09:44:04.190Z,23.20
2018-06-08T09:46:32.509Z,22.90
2018-06-08T09:49:00.845Z,23.50
2018-06-08T09:51:29.181Z,24.60
2018-06-08T09:53:57.515Z,25.00
2018-06-08T09:56:25.821Z,25.30
2018-06-08T09:58:54.165Z,25.50
2018-06-08T10:01:22.474Z,25.60
2018-06-08T10:03:50.801Z,24.80
2018-06-08T10:06:19.109Z,23.70
2018-06-08T10:08:47.553Z,22.70
2018-06-08T10:11:15.878Z,22.20
2018-06-08T10:13:44.213Z,21.90
2018-06-08T10:16:12.513Z,21.80
2018-06-08T10:18:40.869Z,22.30
2018-06-08T10:21:09.176Z,22.20
2018-06-08T10:23:37.577Z,21.50
2018-06-08T10:26:05.923Z,21.40
2018-06-08T10:31:02.349Z,21.30
2018-06-08T10:33:30.649Z,21.20
2018-06-08T10:35:58.973Z,21.20
2018-06-08T10:38:27.278Z,21.10
2018-06-08T10:40:55.633Z,21.00
2018-06-08T10:43:23.945Z,21.00
2018-06-08T10:45:52.277Z,20.90
2018-06-08T10:48:20.603Z,20.80
2018-06-08T10:50:48.930Z,20.70
2018-06-08T10:53:18.253Z,21.70
2018-06-08T10:55:46.584Z,22.10
2018-06-08T10:58:14.894Z,22.60
2018-06-08T11:00:43.217Z,22.50
2018-06-08T11:03:11.580Z,22.30
2018-06-08T11:05:39.906Z,22.40
2018-06-08T11:08:08.233Z,22.60
2018-06-08T11:10:36.567Z,23.50
2018-06-08T11:13:04.883Z,23.00
2018-06-08T11:15:33.222Z,23.20
2018-06-08T11:18:01.525Z,22.80
2018-06-08T11:20:29.846Z,22.10
2018-06-08T11:22:58.165Z,21.70
2018-06-08T11:25:26.509Z,21.70
2018-06-08T11:27:54.829Z,21.40
2018-06-08T11:30:23.154Z,20.90
2018-06-08T11:32:51.477Z,20.60
2018-06-08T11:35:19.810Z,20.50
2018-06-08T11:37:48.117Z,21.50
2018-06-08T11:40:16.432Z,22.60
2018-06-08T11:42:44.764Z,22.30
2018-06-08T11:45:13.085Z,22.00
2018-06-08T11:47:41.413Z,21.80
2018-06-08T11:52:37.797Z,22.10
2018-06-08T11:55:06.110Z,22.10
2018-06-08T11:57:34.433Z,23.10
2018-06-08T12:00:02.778Z,23.60
2018-06-08T12:02:31.132Z,24.20
2018-06-08T12:04:59.445Z,23.70
2018-06-08T12:07:27.768Z,23.10
2018-06-08T12:09:56.105Z,22.90
2018-06-08T12:12:24.429Z,22.90
2018-06-08T12:14:52.746Z,23.50
2018-06-08T12:17:21.101Z,24.00
2018-06-08T12:19:49.414Z,23.70
2018-06-08T12:22:17.767Z,22.90
2018-06-08T12:24:46.081Z,22.70
2018-06-08T12:27:14.401Z,23.20
2018-06-08T12:29:42.705Z,23.10
2018-06-08T12:32:11.037Z,22.60
2018-06-08T12:34:39.350Z,22.20
2018-06-08T12:37:07.766Z,22.00
2018-06-08T12:39:36.069Z,21.90
2018-06-08T12:42:04.385Z,22.30
2018-06-08T12:44:32.733Z,22.90
2018-06-08T12:47:01.085Z,22.90
2018-06-08T12:49:29.392Z,22.80
2018-06-08T12:51:57.720Z,23.70
2018-06-08T12:54:26.029Z,23.50
2018-06-08T12:56:54.373Z,22.90
2018-06-08T12:59:22.764Z,22.50
2018-06-08T13:01:51.076Z,22.00
2018-06-08T13:04:19.409Z,22.00
2018-06-08T13:06:47.733Z,21.90
2018-06-08T13:09:16.086Z,21.70
2018-06-08T13:11:44.405Z,21.90
2018-06-08T13:14:12.760Z,22.70
2018-06-08T13:16:41.091Z,23.00
2018-06-08T13:19:09.611Z,23.40
2018-06-08T13:21:37.793Z,23.80
2018-06-08T13:24:06.177Z,23.40
2018-06-08T13:26:34.491Z,22.80
2018-06-08T13:29:02.826Z,22.40
2018-06-08T13:31:31.233Z,22.10
2018-06-08T13:33:59.589Z,22.90
2018-06-08T13:36:27.884Z,22.60
2018-06-08T13:38:56.213Z,22.30
2018-06-08T13:41:24.517Z,22.00
2018-06-08T13:43:52.857Z,21.80
2018-06-08T13:46:32.561Z,21.90
2018-06-08T13:49:00.881Z,21.90
2018-06-08T13:51:29.189Z,22.90
2018-06-08T13:53:57.519Z,23.30
2018-06-08T13:56:25.828Z,22.90
2018-06-08T13:58:54.160Z,22.90
2018-06-08T14:01:22.490Z,22.40
2018-06-08T14:03:50.823Z,22.70
2018-06-08T14:06:23.272Z,22.70
2018-06-08T14:08:51.624Z,22.50
2018-06-08T14:11:19.993Z,22.00
2018-06-08T14:13:48.396Z,22.00
2018-06-08T14:16:16.709Z,22.30
2018-06-08T14:18:45.038Z,22.00
2018-06-08T14:21:13.373Z,22.10
2018-06-08T14:26:09.774Z,21.70
2018-06-08T14:28:38.080Z,21.90
2018-06-08T14:31:06.413Z,22.20
2018-06-08T14:33:34.817Z,22.30
2018-06-08T14:36:09.760Z,22.50
2018-06-08T14:38:38.629Z,22.80
2018-06-08T14:41:08.314Z,22.70
2018-06-08T14:43:36.637Z,23.10
2018-06-08T14:46:04.986Z,23.80
2018-06-08T14:48:33.301Z,24.40
2018-06-08T14:51:01.633Z,24.20
2018-06-08T14:53:29.964Z,23.90
2018-06-08T14:55:58.296Z,24.00
2018-06-08T14:58:26.617Z,23.80
2018-06-08T15:00:54.985Z,24.00
2018-06-08T15:03:23.293Z,23.50
2018-06-08T15:05:51.649Z,23.50
2018-06-08T15:08:20.022Z,23.40
2018-06-08T15:10:48.374Z,23.70
2018-06-08T15:13:16.683Z,24.10
2018-06-08T15:15:45.086Z,24.70
2018-06-08T15:18:13.562Z,25.80
2018-06-08T15:20:42.285Z,25.70
2018-06-08T15:23:10.811Z,24.70
2018-06-08T15:25:39.449Z,24.20
2018-06-08T15:28:07.766Z,24.00
2018-06-08T15:30:36.089Z,24.20
2018-06-08T15:33:04.593Z,24.40
2018-06-08T15:35:32.914Z,24.60
2018-06-08T15:38:01.342Z,24.90
2018-06-08T15:40:29.745Z,24.60
2018-06-08T15:42:58.076Z,24.80
2018-06-08T15:45:26.402Z,25.20
2018-06-08T15:47:54.809Z,26.00
2018-06-08T15:50:23.143Z,26.10
2018-06-08T15:52:51.452Z,26.60
2018-06-08T15:55:19.761Z,26.70
2018-06-08T15:57:48.096Z,27.80
2018-06-08T16:00:16.418Z,27.40
2018-06-08T16:02:44.798Z,26.40
2018-06-08T16:05:13.106Z,25.80
2018-06-08T16:07:41.442Z,26.10
2018-06-08T16:10:09.785Z,26.40
2018-06-08T16:12:38.437Z,26.10
2018-06-08T16:15:07.489Z,25.80
2018-06-08T16:17:35.817Z,25.30
2018-06-08T16:20:04.129Z,25.20
2018-06-08T16:22:32.965Z,24.70
2018-06-08T16:25:01.390Z,24.50
2018-06-08T16:27:29.814Z,24.70
2018-06-08T16:29:58.230Z,25.00
2018-06-08T16:32:26.610Z,26.20
2018-06-08T16:34:55.265Z,27.90
2018-06-08T16:37:24.692Z,29.20
2018-06-08T16:39:53.064Z,29.50
2018-06-08T16:42:21.554Z,29.30
2018-06-08T16:44:49.874Z,28.20
2018-06-08T16:47:18.288Z,27.20
2018-06-08T16:49:46.589Z,26.90
2018-06-08T16:52:15.835Z,26.70
2018-06-08T16:54:45.083Z,26.50
2018-06-08T16:57:14.170Z,25.50
2018-06-08T16:59:43.237Z,24.70
2018-06-08T17:02:12.329Z,24.00
2018-06-08T17:04:40.642Z,23.50
2018-06-08T17:09:37.037Z,23.00
2018-06-08T17:12:05.378Z,22.90
2018-06-08T17:14:33.689Z,22.90
2018-06-08T17:17:02.034Z,22.80
2018-06-08T17:19:30.388Z,22.70
2018-06-08T17:21:58.730Z,22.80
2018-06-08T17:24:27.057Z,22.90
2018-06-08T17:26:55.369Z,22.80
2018-06-08T17:29:23.689Z,22.90
2018-06-08T17:31:51.993Z,22.70
2018-06-08T17:34:20.328Z,22.50
2018-06-08T17:36:48.637Z,22.50
2018-06-08T17:39:16.973Z,22.50
2018-06-08T17:41:45.278Z,22.50
2018-06-08T17:44:13.625Z,22.60
2018-06-08T17:46:41.934Z,23.30
2018-06-08T17:49:10.263Z,24.10
2018-06-08T17:51:38.585Z,24.40
2018-06-08T17:54:06.917Z,25.00
2018-06-08T17:56:35.274Z,25.30
2018-06-08T17:59:03.601Z,25.30
2018-06-08T18:01:36.421Z,25.10
2018-06-08T18:04:04.781Z,24.60
2018-06-08T18:06:33.133Z,24.50
2018-06-08T18:09:01.473Z,24.40
2018-06-08T18:11:29.780Z,24.00
2018-06-08T18:13:58.100Z,23.80
2018-06-08T18:16:26.405Z,23.50
2018-06-08T18:18:54.733Z,23.20
2018-06-08T18:21:23.041Z,22.80
2018-06-08T18:23:51.385Z,22.50
2018-06-08T18:26:19.700Z,22.10
2018-06-08T18:28:48.034Z,21.90
2018-06-08T18:31:16.353Z,21.70
2018-06-08T18:33:44.687Z,21.60
2018-06-08T18:36:12.999Z,21.40
2018-06-08T18:38:41.453Z,21.30
2018-06-08T18:41:09.796Z,21.30
2018-06-08T18:43:40.856Z,21.20
2018-06-08T18:46:10.554Z,21.20
2018-06-08T18:48:38.946Z,21.10
2018-06-08T18:51:08.550Z,20.90
2018-06-08T18:53:37.229Z,20.80
2018-06-08T18:56:07.173Z,20.60
2018-06-08T18:58:35.534Z,20.50
2018-06-08T19:01:04.745Z,20.40
2018-06-08T19:03:33.114Z,20.30
2018-06-08T19:06:01.486Z,20.20
2018-06-08T19:08:29.841Z,20.10
2018-06-08T19:10:58.169Z,19.90
2018-06-08T19:13:26.497Z,19.80
2018-06-08T19:15:54.828Z,19.70
2018-06-08T19:18:23.169Z,19.70
2018-06-08T19:20:51.501Z,19.70
2018-06-08T19:23:19.818Z,19.70
2018-06-08T19:25:48.136Z,19.70
2018-06-08T19:28:16.445Z,19.80
2018-06-08T19:30:44.786Z,19.80
2018-06-08T19:33:16.492Z,19.90
2018-06-08T19:35:44.834Z,19.90
2018-06-08T19:38:13.145Z,19.80
2018-06-08T19:40:41.484Z,19.80
2018-06-08T19:43:09.789Z,19.90
2018-06-08T19:45:38.122Z,19.90
2018-06-08T19:48:06.518Z,19.90
2018-06-08T19:50:34.841Z,19.80
2018-06-08T19:53:03.158Z,19.60
2018-06-08T19:55:31.497Z,19.60
2018-06-08T19:57:59.818Z,19.50
2018-06-08T20:02:56.354Z,19.40
2018-06-08T20:05:24.879Z,19.40
2018-06-08T20:07:53.212Z,19.40
2018-06-08T20:10:21.861Z,19.40
2018-06-08T20:12:50.237Z,19.40
2018-06-08T20:15:19.609Z,19.50
2018-06-08T20:17:48.300Z,19.40
2018-06-08T20:20:16.617Z,19.30
2018-06-08T20:22:44.948Z,19.20
2018-06-08T20:25:13.273Z,19.10
2018-06-08T20:27:41.600Z,19.00
2018-06-08T20:30:09.913Z,19.10
2018-06-08T20:32:38.248Z,19.10
2018-06-08T20:35:06.585Z,19.20
2018-06-08T20:37:34.937Z,19.20
2018-06-08T20:40:03.266Z,19.20
2018-06-08T20:42:31.602Z,19.10
2018-06-08T20:44:59.913Z,19.00
2018-06-08T20:47:28.338Z,19.10
2018-06-08T20:49:56.661Z,19.00
2018-06-08T20:54:53.056Z,19.00
2018-06-08T20:57:26.140Z,19.00
2018-06-08T20:59:54.466Z,19.00
2018-06-08T21:02:22.981Z,19.00
2018-06-08T21:04:51.221Z,19.10
2018-06-08T21:07:19.561Z,19.10
2018-06-08T21:09:47.892Z,19.10
2018-06-08T21:12:16.221Z,19.10
2018-06-08T21:14:44.533Z,19.10
2018-06-08T21:17:12.861Z,19.00
2018-06-08T21:19:41.168Z,19.00
2018-06-08T21:22:09.497Z,18.90
2018-06-08T21:24:37.812Z,18.80
2018-06-08T21:27:06.222Z,18.80
2018-06-08T21:29:34.497Z,18.80
2018-06-08T21:32:02.814Z,18.80
2018-06-08T21:34:31.140Z,18.80
2018-06-08T21:36:59.457Z,18.70
2018-06-08T21:39:27.781Z,18.70
2018-06-08T21:41:56.089Z,18.60
2018-06-08T21:44:24.432Z,18.60
2018-06-08T21:46:52.737Z,18.60
2018-06-08T21:49:21.065Z,18.70
2018-06-08T21:51:49.369Z,18.60
2018-06-08T21:54:17.702Z,18.60
2018-06-08T21:56:46.017Z,18.60
2018-06-08T21:59:14.346Z,18.60
2018-06-08T22:01:42.670Z,18.60
2018-06-08T22:04:11.039Z,18.50
2018-06-08T22:06:39.353Z,18.40
2018-06-08T22:09:07.778Z,18.40
2018-06-08T22:11:36.085Z,18.30
2018-06-08T22:14:04.601Z,18.30
2018-06-08T22:16:32.913Z,18.30
2018-06-08T22:19:01.243Z,18.30
2018-06-08T22:21:29.553Z,18.30
2018-06-08T22:23:57.887Z,18.30
2018-06-08T22:26:26.202Z,18.30
2018-06-08T22:28:54.637Z,18.30
2018-06-08T22:31:22.947Z,18.30
2018-06-08T22:33:51.283Z,18.30
2018-06-08T22:36:19.610Z,18.20
2018-06-08T22:38:47.954Z,18.10
2018-06-08T22:41:16.270Z,18.10
2018-06-08T22:43:44.617Z,18.10
2018-06-08T22:46:12.933Z,18.10
2018-06-08T22:48:41.285Z,18.20
2018-06-08T22:51:09.588Z,18.20
2018-06-08T22:53:37.897Z,18.00
2018-06-08T22:56:06.226Z,18.00
2018-06-08T22:58:34.544Z,18.00
2018-06-08T23:01:02.909Z,18.10
2018-06-08T23:03:31.228Z,18.20
2018-06-08T23:05:59.562Z,18.10
2018-06-08T23:08:27.889Z,18.10
2018-06-08T23:10:56.225Z,18.20
2018-06-08T23:13:24.645Z,18.30
2018-06-08T23:15:52.973Z,18.40
2018-06-08T23:18:21.280Z,18.40
2018-06-08T23:20:49.609Z,18.40
2018-06-08T23:23:18.009Z,18.40
2018-06-08T23:25:46.339Z,18.40
2018-06-08T23:28:14.645Z,18.50
2018-06-08T23:30:42.982Z,18.60
2018-06-08T23:33:11.360Z,18.60
2018-06-08T23:35:39.693Z,18.50
2018-06-08T23:38:08.001Z,18.50
2018-06-08T23:40:36.329Z,18.50
2018-06-08T23:43:04.641Z,18.40
2018-06-08T23:45:32.997Z,18.50
2018-06-08T23:48:01.313Z,18.50
2018-06-08T23:50:29.652Z,18.50
2018-06-08T23:52:57.967Z,18.40
2018-06-08T23:55:26.292Z,18.40
2018-06-08T23:57:54.609Z,18.30
